Time;durP1;ratioP1;P1;durP2;ratioP2;P2;SDS_P1;SDS_P2;PMS_P1;PMS_P2;Temp;Humidity;BMP_temperature;BMP_pressure;BME280_temperature;BME280_humidity;BME280_pressure;Samples;Min_cycle;Max_cycle;Signal;HPM_P1;HPM_P2
2021/08/03 07:04:11;;;;;;;;;31.80;30.60;;;;;30.69;58.87;100920.97;4924886;29;8803;-76
2021/08/03 07:07:07;;;;;;;;;35.00;32.20;;;;;30.65;58.18;100934.53;4926321;29;8852;-75
2021/08/03 07:10:06;;;;;;;;;37.20;31.40;;;;;30.66;58.42;100932.50;4929158;29;8852;-73
2021/08/03 07:13:02;;;;;;;;;42.80;36.40;;;;;30.62;58.60;100932.63;4934733;29;8869;-74
2021/08/03 07:15:58;;;;;;;;;39.20;33.60;;;;;30.69;57.93;100937.31;4919048;29;8838;-75
2021/08/03 07:18:57;;;;;;;;;37.00;33.20;;;;;30.72;56.91;100944.91;4934399;29;9032;-74
2021/08/03 07:21:53;;;;;;;;;39.00;34.60;;;;;30.79;57.21;100933.25;4935629;29;8872;-75
2021/08/03 07:24:49;;;;;;;;;36.40;32.20;;;;;30.81;56.92;100941.34;4935263;29;8841;-77
2021/08/03 07:27:45;;;;;;;;;33.40;31.40;;;;;30.56;56.81;100954.44;4938311;29;8895;-73
2021/08/03 07:30:42;;;;;;;;;44.80;38.40;;;;;30.60;57.28;100955.13;4934697;29;9685;-74
2021/08/03 07:33:41;;;;;;;;;48.80;40.80;;;;;30.98;57.01;100954.16;4936809;29;8842;-75
2021/08/03 07:36:37;;;;;;;;;53.80;44.00;;;;;31.35;55.42;100948.66;4936228;29;8845;-74
2021/08/03 07:39:40;;;;;;;;;46.40;39.00;;;;;31.66;54.78;100952.28;4938359;29;8887;-71
2021/08/03 07:42:36;;;;;;;;;49.00;41.20;;;;;31.60;54.54;100950.53;4936368;29;8862;-74
2021/08/03 07:45:33;;;;;;;;;50.20;41.80;;;;;31.74;53.67;100953.59;4934650;29;8912;-74
2021/08/03 07:48:29;;;;;;;;;53.60;43.80;;;;;32.12;53.26;100963.09;4925215;29;8831;-75
2021/08/03 07:51:25;;;;;;;;;47.20;40.20;;;;;32.38;52.12;100973.03;4933346;29;8835;-74
2021/08/03 07:54:21;;;;;;;;;46.80;40.60;;;;;32.45;51.20;100969.06;4921807;29;9708;-75
2021/08/03 07:57:21;;;;;;;;;57.80;47.00;;;;;32.41;51.46;100966.34;4935618;29;8859;-75
2021/08/03 08:00:17;;;;;;;;;55.40;44.60;;;;;32.56;50.95;100969.38;4934741;29;8866;-75
2021/08/03 08:03:12;;;;;;;;;52.40;43.20;;;;;32.32;50.88;100964.25;4935865;29;9592;-75
2021/08/03 08:06:08;;;;;;;;;54.40;44.20;;;;;32.40;50.83;100956.16;4934410;29;8917;-74
2021/08/03 08:09:04;;;;;;;;;60.20;45.00;;;;;32.21;50.68;100946.75;4934070;29;8945;-75
2021/08/03 08:11:59;;;;;;;;;49.60;41.60;;;;;32.64;50.52;100937.06;4934190;29;8852;-75
2021/08/03 08:14:55;;;;;;;;;50.80;42.40;;;;;32.71;50.38;100940.88;4934440;29;8839;-75
2021/08/03 08:17:50;;;;;;;;;53.80;44.20;;;;;32.73;50.25;100933.41;4934559;29;8854;-76
2021/08/03 08:20:46;;;;;;;;;49.80;41.80;;;;;32.77;49.10;100939.78;4936358;29;8954;-75
2021/08/03 08:23:15;;;;;;;;;56.80;44.20;;;;;32.89;48.91;100930.22;4923548;29;8854;-75
2021/08/03 08:25:58;;;;;;;;;55.20;45.00;;;;;32.86;49.17;100939.00;4933009;29;8896;-74
2021/08/03 08:28:54;;;;;;;;;54.60;44.20;;;;;32.76;48.60;100952.50;4933899;29;9002;-74
2021/08/03 08:31:22;;;;;;;;;49.60;42.00;;;;;33.05;49.60;100954.06;4934130;29;9631;-75
2021/08/03 08:34:19;;;;;;;;;49.00;41.60;;;;;32.95;50.13;100941.81;4929830;29;8846;-73
2021/08/03 08:37:14;;;;;;;;;51.00;42.00;;;;;32.85;48.59;100949.66;4932321;29;8975;-74
2021/08/03 08:40:12;;;;;;;;;33.00;30.40;;;;;32.89;48.62;100956.00;4937644;29;8979;-75
2021/08/03 08:42:40;;;;;;;;;52.20;43.00;;;;;33.12;48.17;100948.00;4939391;29;8874;-74
2021/08/03 08:45:09;;;;;;;;;46.80;39.00;;;;;33.09;48.11;100948.97;4944300;29;8912;-73
2021/08/03 08:47:42;;;;;;;;;50.00;41.60;;;;;33.16;47.03;100943.69;4933843;29;8880;-74
2021/08/03 08:50:12;;;;;;;;;51.20;41.60;;;;;33.36;46.85;100939.50;4934605;29;8965;-74
2021/08/03 08:52:44;;;;;;;;;51.20;42.00;;;;;33.12;48.50;100930.81;4921088;29;8872;-72
2021/08/03 08:55:39;;;;;;;;;50.20;42.00;;;;;32.97;47.99;100932.75;4934491;28;8830;-74
2021/08/03 08:58:08;;;;;;;;;47.00;39.60;;;;;32.99;48.37;100930.22;4945204;28;8839;-73
2021/08/03 09:01:04;;;;;;;;;49.40;39.60;;;;;32.95;47.71;100921.78;4933100;29;8846;-75
2021/08/03 09:04:03;;;;;;;;;47.20;39.60;;;;;33.12;47.37;100919.34;4924696;28;8925;-73
2021/08/03 09:07:03;;;;;;;;;46.00;39.20;;;;;33.28;45.88;100916.13;4936683;28;8881;-74
2021/08/03 09:10:00;;;;;;;;;49.40;42.00;;;;;33.29;47.47;100911.97;4924349;28;8839;-75
2021/08/03 09:13:06;;;;;;;;;51.00;42.00;;;;;33.22;46.39;100902.94;4956063;28;8891;-73
2021/08/03 09:16:06;;;;;;;;;46.40;39.20;;;;;33.37;46.43;100901.78;4951543;28;8844;-75
2021/08/03 09:19:31;;;;;;;;;45.20;38.00;;;;;33.60;47.08;100913.78;4946613;28;8871;-74
2021/08/03 09:22:30;;;;;;;;;49.60;41.20;;;;;33.43;46.92;100902.72;4934380;28;8843;-74
2021/08/03 09:25:25;;;;;;;;;47.80;40.40;;;;;33.52;46.26;100913.34;4936397;29;8846;-74
2021/08/03 09:27:59;;;;;;;;;48.00;39.80;;;;;33.37;46.25;100912.44;4940480;29;8877;-75
2021/08/03 09:30:31;;;;;;;;;45.60;39.00;;;;;33.81;45.57;100909.81;4920963;29;8834;-75
2021/08/03 09:32:58;;;;;;;;;53.60;43.40;;;;;33.96;44.29;100918.50;4939449;29;8861;-74
2021/08/03 09:35:27;;;;;;;;;43.60;37.00;;;;;34.20;44.28;100922.19;4940786;29;9708;-74
2021/08/03 09:37:56;;;;;;;;;39.60;34.60;;;;;33.68;42.19;100932.22;4937193;29;8981;-74
2021/08/03 09:40:34;;;;;;;;;46.40;39.00;;;;;33.82;44.93;100934.38;4937307;29;8845;-74
2021/08/03 09:43:06;;;;;;;;;40.40;35.60;;;;;33.64;43.68;100935.25;4936056;29;8853;-74
2021/08/03 09:46:03;;;;;;;;;45.40;38.20;;;;;33.46;43.25;100932.47;4935913;29;8870;-75
2021/08/03 09:48:46;;;;;;;;;42.20;37.00;;;;;33.22;42.52;100915.19;4937677;29;8845;-74
2021/08/03 09:51:14;;;;;;;;;39.60;35.20;;;;;33.00;43.74;100917.47;4919029;29;8868;-74
2021/08/03 09:53:50;;;;;;;;;33.40;31.20;;;;;33.11;45.32;100912.81;4917648;29;8907;-75
2021/08/03 09:56:46;;;;;;;;;47.60;40.60;;;;;33.04;46.84;100906.63;4919565;29;9638;-74
2021/08/03 09:59:42;;;;;;;;;40.40;35.80;;;;;33.19;47.63;100896.06;4936165;29;8823;-74
2021/08/03 10:02:26;;;;;;;;;4.00;0.25;;;;;33.08;48.30;100898.66;4936181;29;8858;-74
2021/08/03 10:05:09;;;;;;;;;69.50;63.25;;;;;33.07;48.42;100903.63;4922124;29;8851;-74
2021/08/03 10:07:38;;;;;;;;;60.75;50.25;;;;;33.07;48.77;100894.22;4936711;29;8975;-74
2021/08/03 10:10:20;;;;;;;;;56.00;45.80;;;;;33.17;49.51;100901.50;4936955;29;8874;-74
2021/08/03 10:12:47;;;;;;;;;51.60;42.60;;;;;33.30;48.41;100901.31;4936628;29;8868;-74
2021/08/03 10:15:45;;;;;;;;;50.60;40.80;;;;;33.16;48.31;100886.38;4935629;29;8938;-74
2021/08/03 10:18:26;;;;;;;;;59.40;46.60;;;;;33.33;48.05;100874.53;4935618;29;8841;-74
2021/08/03 10:21:03;;;;;;;;;45.00;39.00;;;;;33.28;47.48;100878.88;4936608;29;9678;-74
2021/08/03 10:23:34;;;;;;;;;47.00;39.80;;;;;32.89;48.44;100884.38;4936865;29;8881;-74
2021/08/03 10:26:10;;;;;;;;;46.00;39.20;;;;;32.99;48.28;100899.50;4937402;29;8864;-74
2021/08/03 10:28:38;;;;;;;;;54.60;45.00;;;;;32.92;48.72;100902.69;4935990;29;8864;-74
2021/08/03 10:31:39;;;;;;;;;54.00;44.60;;;;;32.82;49.17;100875.31;4936233;29;8928;-74
2021/08/03 10:34:07;;;;;;;;;40.80;35.20;;;;;32.66;49.96;100873.59;4934797;29;8872;-74
2021/08/03 10:36:52;;;;;;;;;39.40;35.20;;;;;32.44;50.49;100873.00;4922845;29;9618;-74
2021/08/03 10:39:21;;;;;;;;;93.00;90.33;;;;;32.43;50.26;100875.06;4936713;29;8936;-75
2021/08/03 10:41:58;;;;;;;;;37.20;34.00;;;;;32.19;50.62;100865.50;4941211;29;9256;-75
2021/08/03 10:44:57;;;;;;;;;38.00;34.20;;;;;31.87;50.78;100866.91;4942725;29;9583;-73
2021/08/03 10:47:31;;;;;;;;;43.60;37.00;;;;;31.62;52.02;100868.75;4940469;29;8893;-74
2021/08/03 10:50:27;;;;;;;;;38.80;34.60;;;;;31.52;52.40;100859.38;4942533;28;8896;-75
2021/08/03 10:53:52;;;;;;;;;48.20;41.60;;;;;31.49;52.86;100871.72;4945826;28;8843;-75
2021/08/03 10:56:54;;;;;;;;;44.20;38.40;;;;;31.46;51.86;100869.81;4942385;28;8884;-74
2021/08/03 10:59:59;;;;;;;;;39.00;34.80;;;;;31.26;52.29;100892.28;4942740;28;8838;-74
2021/08/03 11:03:31;;;;;;;;;38.40;34.00;;;;;31.19;53.00;100903.97;4935384;29;8875;-75
2021/08/03 11:06:31;;;;;;;;;43.80;37.80;;;;;31.14;52.63;100913.16;4935367;29;8853;-74
2021/08/03 11:09:31;;;;;;;;;49.20;41.40;;;;;31.14;53.00;100896.81;4949497;28;8938;-75
2021/08/03 11:12:33;;;;;;;;;44.80;37.60;;;;;31.11;53.20;100892.00;4943153;28;8858;-73
2021/08/03 11:15:34;;;;;;;;;52.00;43.40;;;;;30.94;54.20;100885.75;4933543;28;8949;-75
2021/08/03 11:18:06;;;;;;;;;54.00;43.40;;;;;30.87;53.90;100883.16;4935752;28;8963;-74
2021/08/03 11:20:43;;;;;;;;;50.80;42.20;;;;;30.88;53.65;100893.31;4951718;28;8868;-74
2021/08/03 11:23:17;;;;;;;;;49.40;41.40;;;;;30.83;54.53;100891.09;4952859;28;8833;-74
2021/08/03 11:26:19;;;;;;;;;40.80;35.60;;;;;30.52;57.49;100901.59;4949328;28;8951;-74
2021/08/03 11:29:17;;;;;;;;;31.60;30.80;;;;;30.15;62.32;100913.53;4951700;28;8850;-74
2021/08/03 11:32:21;;;;;;;;;41.00;35.20;;;;;30.17;63.01;100893.09;4932788;28;9599;-73
2021/08/03 11:35:07;;;;;;;;;36.20;33.20;;;;;30.10;64.61;100894.13;4932704;29;8886;-73
2021/08/03 11:38:07;;;;;;;;;40.20;35.00;;;;;29.93;63.30;100918.34;4934362;28;8989;-74
2021/08/03 11:41:03;;;;;;;;;47.80;40.40;;;;;29.60;68.93;100934.91;4940281;28;8924;-73
2021/08/03 11:44:00;;;;;;;;;63.75;52.75;;;;;29.33;68.92;100961.75;4939481;28;8850;-74
2021/08/03 11:47:19;;;;;;;;;54.00;45.00;;;;;28.83;72.85;100990.88;4946686;28;8898;-75
2021/08/03 11:50:32;;;;;;;;;55.75;46.00;;;;;28.24;75.98;100989.22;4904029;29;8849;-72
2021/08/03 11:53:30;;;;;;;;;29.00;28.00;;;;;27.75;68.39;100938.03;4938681;29;8864;-72
2021/08/03 11:56:43;;;;;;;;;44.25;38.00;;;;;27.10;72.32;100950.06;4917602;29;8917;-72
2021/08/03 11:59:39;;;;;;;;;26.60;26.20;;;;;27.24;73.02;100974.53;4945749;29;9724;-72
2021/08/03 12:02:40;;;;;;;;;30.00;28.60;;;;;27.02;72.88;100984.69;4933618;29;8846;-72
2021/08/03 12:05:39;;;;;;;;;38.25;34.50;;;;;26.52;75.98;100994.97;4946579;29;8954;-72
2021/08/03 12:08:46;;;;;;;;;41.75;36.75;;;;;26.38;74.34;100985.91;4912246;29;8848;-71
2021/08/03 12:12:23;;;;;;;;;33.40;31.40;;;;;26.34;74.84;100986.78;4936392;28;8895;-70
2021/08/03 12:20:01;;;;;;;;;40.75;36.00;;;;;26.06;80.59;100970.25;4923625;29;8976;-72
2021/08/03 12:26:24;;;;;;;;;45.75;39.50;;;;;26.08;84.40;100945.13;4932250;29;8874;-73
2021/08/03 12:29:33;;;;;;;;;43.00;37.25;;;;;26.16;86.46;100952.28;4930766;28;8856;-72
2021/08/03 12:32:40;;;;;;;;;40.50;35.75;;;;;26.65;79.08;100966.78;4934270;29;9763;-70
2021/08/03 12:35:39;;;;;;;;;44.25;38.25;;;;;27.10;78.06;100984.13;4933237;29;8866;-71
2021/08/03 12:38:16;;;;;;;;;46.00;39.25;;;;;27.36;76.59;100990.06;4941286;28;8847;-71
2021/08/03 12:41:22;;;;;;;;;46.25;39.50;;;;;26.78;81.94;101007.47;4936635;28;9616;-70
2021/08/03 12:44:27;;;;;;;;;40.25;35.25;;;;;26.59;83.31;101028.88;4923925;29;8854;-71
2021/08/03 12:47:26;;;;;;;;;43.25;35.75;;;;;26.66;82.08;101053.47;4937059;29;8844;-72
2021/08/03 12:50:23;;;;;;;;;49.50;41.75;;;;;26.26;87.42;101076.00;4919104;29;8841;-79
2021/08/03 12:53:24;;;;;;;;;45.25;38.25;;;;;25.48;85.60;101072.25;4928541;29;8898;-78
2021/08/03 12:55:56;;;;;;;;;40.75;36.00;;;;;25.20;86.50;101047.13;4916093;29;8859;-79
2021/08/03 12:58:40;;;;;;;;;44.75;37.50;;;;;25.12;87.79;101066.22;4906551;29;8865;-78
2021/08/03 13:01:36;;;;;;;;;44.50;38.25;;;;;25.07;87.74;101097.81;4934213;29;8854;-79
2021/08/03 13:04:17;;;;;;;;;44.00;38.25;;;;;24.96;90.74;101106.38;4951839;28;8860;-79
2021/08/03 13:07:15;;;;;;;;;46.00;39.50;;;;;25.04;91.12;101095.81;4934041;29;8905;-79
2021/08/03 13:10:11;;;;;;;;;46.25;38.75;;;;;24.98;91.05;101046.56;4939236;29;8933;-81
2021/08/03 13:12:59;;;;;;;;;43.25;37.75;;;;;24.79;91.86;100967.97;4925301;29;8858;-81
2021/08/03 13:15:27;;;;;;;;;32.25;31.00;;;;;24.42;91.26;100985.75;4939854;29;8858;-78
2021/08/03 13:17:59;;;;;;;;;38.50;34.75;;;;;24.59;89.96;101016.66;4938353;28;8875;-81
2021/08/03 13:20:55;;;;;;;;;41.75;36.75;;;;;24.66;92.29;101015.78;4934779;29;8882;-78
2021/08/03 13:23:56;;;;;;;;;41.00;35.75;;;;;24.69;93.04;101014.97;4924324;29;8835;-77
2021/08/03 13:26:53;;;;;;;;;45.75;39.25;;;;;24.64;93.66;101047.31;4938026;29;8862;-78
2021/08/03 13:29:49;;;;;;;;;47.00;40.50;;;;;24.70;93.13;101069.50;4924373;29;8939;-79
2021/08/03 13:32:44;;;;;;;;;42.75;37.50;;;;;24.53;94.32;101063.56;4928751;29;8866;-80
2021/08/03 13:35:42;;;;;;;;;45.00;38.00;;;;;24.78;92.85;101034.25;4947204;28;8856;-78
2021/08/03 13:38:41;;;;;;;;;55.75;46.00;;;;;25.02;91.71;101018.22;4941152;28;8876;-78
2021/08/03 13:41:41;;;;;;;;;61.25;50.50;;;;;25.17;91.55;101023.31;4941643;28;8875;-78
2021/08/03 13:44:11;;;;;;;;;52.75;44.50;;;;;25.28;92.27;101025.22;4938261;29;9607;-76
2021/08/03 13:46:42;;;;;;;;;55.00;44.25;;;;;25.35;91.95;101039.28;4922584;29;8857;-79
2021/08/03 13:49:38;;;;;;;;;59.00;47.50;;;;;25.39;90.15;101035.19;4937273;29;9591;-80
2021/08/03 13:52:35;;;;;;;;;64.50;51.00;;;;;25.38;90.19;101032.75;4937582;29;8897;-79
2021/08/03 13:55:32;;;;;;;;;67.33;56.33;;;;;25.22;91.77;101031.31;4918841;29;9726;-75
2021/08/03 13:58:29;;;;;;;;;77.50;74.50;;;;;25.39;91.32;101032.34;4918593;29;9217;-78
2021/08/03 14:01:24;;;;;;;;;75.75;68.75;;;;;25.29;90.17;101038.13;4917350;29;10023;-76
2021/08/03 14:04:20;;;;;;;;;70.00;59.00;;;;;25.38;92.37;101032.75;4927764;29;9656;-77
2021/08/03 14:07:16;;;;;;;;;56.00;46.75;;;;;25.58;91.81;101042.19;4923973;29;9433;-76
2021/08/03 14:10:14;;;;;;;;;62.00;51.25;;;;;25.67;92.22;101045.28;4924298;29;8852;-76
2021/08/03 14:13:11;;;;;;;;;78.25;75.00;;;;;25.72;91.03;101032.72;4936135;29;8852;-76
2021/08/03 14:16:08;;;;;;;;;84.25;77.50;;;;;25.61;91.05;101013.03;4937065;29;10077;-77
2021/08/03 14:19:06;;;;;;;;;89.00;84.50;;;;;25.76;90.53;101008.81;4917662;29;10047;-77
2021/08/03 14:22:03;;;;;;;;;79.00;73.50;;;;;25.87;88.67;101019.94;4931408;28;10536;-77
2021/08/03 14:24:58;;;;;;;;;80.00;76.00;;;;;25.99;90.04;101019.38;4935827;29;10190;-72
2021/08/03 14:27:54;;;;;;;;;62.25;50.50;;;;;26.66;83.15;101027.94;4935943;29;10009;-73
2021/08/03 14:30:51;;;;;;;;;74.00;62.67;;;;;26.92;82.18;101028.28;4948855;28;8848;-76
2021/08/03 14:33:47;;;;;;;;;67.75;56.00;;;;;27.06;81.01;101025.97;4947901;29;9038;-74
2021/08/03 14:36:42;;;;;;;;;61.00;50.00;;;;;27.13;80.59;101005.97;4934096;29;8853;-71
2021/08/03 14:39:38;;;;;;;;;62.25;50.50;;;;;27.14;79.82;101009.59;4935001;29;8891;-72
2021/08/03 14:42:29;;;;;;;;;65.00;51.00;;;;;26.96;80.18;101014.81;4935613;29;8877;-72
2021/08/03 14:44:57;;;;;;;;;63.75;50.25;;;;;26.99;80.46;101026.13;4936441;29;8857;-72
2021/08/03 14:47:53;;;;;;;;;55.25;45.25;;;;;27.22;78.91;101035.78;4935400;29;8867;-72
2021/08/03 14:50:48;;;;;;;;;52.00;43.50;;;;;26.93;80.14;101041.25;4934423;29;8941;-72
2021/08/03 14:53:44;;;;;;;;;47.75;40.50;;;;;27.01;79.65;101025.69;4934919;29;8917;-72
2021/08/03 14:56:32;;;;;;;;;27.80;27.80;;;;;26.52;80.52;101025.38;4951031;28;8943;-73
2021/08/03 14:59:22;;;;;;;;;28.80;28.60;;;;;26.30;82.80;101007.91;4935845;29;8875;-72
2021/08/03 15:01:51;;;;;;;;;36.40;33.00;;;;;26.50;81.31;100994.63;4944714;28;8864;-73
2021/08/03 15:04:20;;;;;;;;;33.60;31.60;;;;;26.70;81.01;100991.81;4948879;29;8865;-72
2021/08/03 15:07:08;;;;;;;;;42.40;34.80;;;;;27.15;78.34;100994.19;4936550;29;8858;-72
2021/08/03 15:10:04;;;;;;;;;40.00;35.40;;;;;26.98;79.88;100998.16;4917710;28;8914;-72
2021/08/03 15:13:00;;;;;;;;;24.00;24.00;;;;;27.16;78.94;100995.78;4934492;29;8845;-72
2021/08/03 15:15:55;;;;;;;;;32.20;30.80;;;;;27.28;78.39;101000.78;4934651;29;8854;-72
2021/08/03 15:18:51;;;;;;;;;37.00;32.60;;;;;27.30;78.29;101006.03;4933622;29;8829;-72
2021/08/03 15:21:50;;;;;;;;;27.80;27.80;;;;;27.47;77.44;101004.84;4952080;28;8868;-71
2021/08/03 15:24:46;;;;;;;;;23.60;23.40;;;;;27.02;77.23;100993.22;4953085;28;8844;-72
2021/08/03 15:27:13;;;;;;;;;26.00;25.00;;;;;26.63;78.91;101008.19;4945565;29;8917;-71
2021/08/03 15:30:09;;;;;;;;;28.40;28.20;;;;;27.06;78.94;101013.81;4934739;29;9656;-71
2021/08/03 15:32:59;;;;;;;;;24.00;24.00;;;;;26.93;78.67;101021.38;4937812;28;8847;-71
2021/08/03 15:35:57;;;;;;;;;20.40;20.40;;;;;26.94;76.80;101028.66;4936648;29;9077;-73
2021/08/03 15:38:53;;;;;;;;;23.20;23.20;;;;;27.14;77.35;101020.94;4928600;29;8845;-73
2021/08/03 15:41:49;;;;;;;;;29.80;26.00;;;;;27.05;79.62;101030.06;4944062;28;8868;-71
2021/08/03 15:44:45;;;;;;;;;35.80;30.40;;;;;26.96;79.54;101029.00;4935947;29;8853;-73
2021/08/03 15:47:41;;;;;;;;;32.20;30.80;;;;;27.16;78.31;101027.00;4930913;29;8891;-70
2021/08/03 15:50:10;;;;;;;;;28.60;28.40;;;;;26.92;78.16;101039.66;4935784;29;8868;-74
2021/08/03 15:52:56;;;;;;;;;28.40;28.20;;;;;26.83;78.39;101029.63;4935369;28;8863;-72
2021/08/03 15:55:38;;;;;;;;;27.40;27.00;;;;;26.86;79.60;101030.81;4941899;29;8870;-72
2021/08/03 15:58:06;;;;;;;;;30.80;29.80;;;;;27.12;78.52;101035.59;4953966;28;8849;-72
2021/08/03 16:01:02;;;;;;;;;29.20;29.00;;;;;27.05;78.70;101040.59;4937980;29;8929;-72
2021/08/03 16:03:43;;;;;;;;;33.40;31.60;;;;;26.77;79.90;101039.91;4907588;29;8867;-71
2021/08/03 16:06:39;;;;;;;;;28.60;27.80;;;;;26.68;81.96;101033.97;4939797;29;9618;-72
2021/08/03 16:09:34;;;;;;;;;21.40;21.40;;;;;26.51;83.67;101040.78;4946360;29;8960;-72
2021/08/03 16:12:32;;;;;;;;;33.00;31.60;;;;;26.52;82.81;101039.56;4941395;28;8860;-70
2021/08/03 16:15:27;;;;;;;;;29.80;28.80;;;;;26.81;82.13;101032.13;4949453;29;8851;-72
2021/08/03 16:18:28;;;;;;;;;32.80;31.20;;;;;27.19;80.32;101042.38;4944929;28;8844;-70
2021/08/03 16:21:25;;;;;;;;;23.40;23.40;;;;;27.19;79.67;101050.88;4938693;29;8863;-70
2021/08/03 16:24:21;;;;;;;;;35.40;32.40;;;;;27.09;79.17;101047.03;4939755;29;8838;-71
2021/08/03 16:27:16;;;;;;;;;39.40;34.20;;;;;27.04;79.46;101044.69;4951235;28;8828;-73
2021/08/03 16:30:12;;;;;;;;;40.40;34.80;;;;;27.32;78.18;101057.50;4951920;28;8949;-72
2021/08/03 16:32:47;;;;;;;;;34.40;31.60;;;;;27.35;77.68;101057.41;4946597;28;8859;-73
2021/08/03 16:35:40;;;;;;;;;41.40;36.00;;;;;27.24;78.86;101053.22;4941126;28;8858;-71
2021/08/03 16:38:48;;;;;;;;;44.20;38.20;;;;;26.95;79.16;101056.59;4941577;28;8835;-72
2021/08/03 16:41:49;;;;;;;;;37.80;34.20;;;;;27.07;78.93;101052.34;4947337;28;8854;-71
2021/08/03 16:44:54;;;;;;;;;37.40;33.80;;;;;26.59;81.17;101047.94;4945895;28;8860;-70
2021/08/03 16:47:39;;;;;;;;;46.00;39.00;;;;;26.30;81.52;101061.75;4934092;28;8858;-70
2021/08/03 16:50:35;;;;;;;;;44.75;38.25;;;;;26.10;82.92;101061.69;4946070;28;8878;-71
2021/08/03 16:53:30;;;;;;;;;45.80;39.20;;;;;26.12;83.58;101050.72;4949070;28;8867;-72
2021/08/03 16:56:29;;;;;;;;;54.75;43.25;;;;;25.95;84.15;101055.44;4959509;28;8852;-73
2021/08/03 16:59:24;;;;;;;;;58.50;47.25;;;;;25.59;84.74;101052.28;4959238;28;8888;-74
2021/08/03 17:02:28;;;;;;;;;57.50;46.75;;;;;25.41;86.33;101048.91;4942583;29;8973;-71
2021/08/03 17:05:04;;;;;;;;;48.50;41.25;;;;;25.88;85.34;101051.91;4924540;29;8930;-72
2021/08/03 17:07:59;;;;;;;;;59.75;47.00;;;;;25.90;84.24;101050.25;4943593;28;8874;-74
2021/08/03 17:10:47;;;;;;;;;53.75;43.75;;;;;26.39;82.88;101049.94;4946402;29;8919;-72
2021/08/03 17:13:50;;;;;;;;;55.75;43.25;;;;;26.45;82.12;101059.53;4936397;29;8865;-74
2021/08/03 17:16:53;;;;;;;;;52.25;42.75;;;;;26.36;82.33;101050.75;4936367;28;9638;-72
2021/08/03 17:19:55;;;;;;;;;55.50;45.50;;;;;26.64;81.31;101060.81;4929364;29;8845;-73
2021/08/03 17:22:28;;;;;;;;;55.25;45.75;;;;;26.49;81.19;101063.13;4927426;28;8848;-74
2021/08/03 17:25:25;;;;;;;;;31.00;28.75;;;;;26.85;80.56;101075.44;4950906;28;8977;-72
2021/08/03 17:28:22;;;;;;;;;48.00;39.75;;;;;27.11;79.59;101072.94;4918131;29;8929;-74
2021/08/03 17:31:19;;;;;;;;;49.00;41.25;;;;;27.23;78.84;101083.66;4917582;29;8991;-73
2021/08/03 17:34:16;;;;;;;;;52.00;43.50;;;;;27.30;78.41;101079.88;4918792;29;8853;-72
2021/08/03 17:37:12;;;;;;;;;55.75;45.50;;;;;27.26;78.63;101081.97;4921375;29;8899;-72
2021/08/03 17:40:10;;;;;;;;;57.00;46.75;;;;;27.37;77.84;101080.53;4918552;29;8887;-73
2021/08/03 17:43:06;;;;;;;;;60.25;48.75;;;;;27.20;78.64;101090.19;4917736;29;8883;-73
2021/08/03 17:46:05;;;;;;;;;58.00;47.50;;;;;26.97;79.84;101090.22;4935699;29;8834;-73
2021/08/03 17:49:06;;;;;;;;;59.25;48.25;;;;;27.20;78.58;101095.06;4923597;29;8858;-73
2021/08/03 17:52:06;;;;;;;;;57.75;47.25;;;;;27.04;79.24;101095.78;4948239;28;8915;-71
2021/08/03 17:55:04;;;;;;;;;51.50;42.50;;;;;27.26;78.08;101102.66;4955618;28;8852;-72
2021/08/03 17:58:01;;;;;;;;;58.25;46.50;;;;;27.38;77.62;101098.38;4957320;28;8951;-73
2021/08/03 18:00:59;;;;;;;;;56.25;44.75;;;;;27.44;76.90;101102.28;4955665;28;8847;-73
2021/08/03 18:03:55;;;;;;;;;60.25;49.00;;;;;27.43;77.30;101114.88;4955436;28;8875;-74
2021/08/03 18:06:46;;;;;;;;;57.25;46.75;;;;;27.40;77.26;101122.25;4954684;28;9651;-74
2021/08/03 18:09:43;;;;;;;;;55.25;46.25;;;;;27.21;77.78;101125.84;4919132;28;8887;-72
2021/08/03 18:12:12;;;;;;;;;52.25;43.75;;;;;27.39;77.50;101117.00;4937485;28;8829;-74
2021/08/03 18:15:08;;;;;;;;;59.25;46.00;;;;;27.48;77.09;101113.56;4938785;29;8850;-73
2021/08/03 18:18:05;;;;;;;;;60.00;49.00;;;;;27.28;77.94;101105.84;4925807;28;8859;-73
2021/08/03 18:21:01;;;;;;;;;56.25;45.50;;;;;27.35;77.50;101107.75;4954099;28;8848;-73
2021/08/03 18:23:57;;;;;;;;;54.50;45.25;;;;;27.37;77.58;101106.09;4935774;29;8863;-73
2021/08/03 18:27:00;;;;;;;;;56.50;46.75;;;;;27.26;77.87;101116.03;4931703;29;8859;-74
2021/08/03 18:30:04;;;;;;;;;58.50;47.25;;;;;27.15;78.23;101130.47;4942575;28;8851;-73
2021/08/03 18:33:04;;;;;;;;;62.25;48.75;;;;;27.02;79.19;101124.56;4915618;29;8949;-73
2021/08/03 18:36:01;;;;;;;;;55.50;45.75;;;;;27.06;78.84;101128.16;4935731;29;8953;-73
2021/08/03 18:38:47;;;;;;;;;55.00;43.75;;;;;27.24;77.47;101122.16;4921308;28;8850;-72
2021/08/03 18:41:47;;;;;;;;;54.00;44.75;;;;;27.34;77.24;101120.34;4928513;28;9122;-73
2021/08/03 18:44:55;;;;;;;;;56.75;46.50;;;;;27.23;77.24;101117.72;4961932;28;8833;-73
2021/08/03 18:47:52;;;;;;;;;53.00;44.00;;;;;27.35;76.97;101131.25;4942345;28;8867;-73
2021/08/03 18:50:50;;;;;;;;;59.25;47.00;;;;;27.34;76.95;101126.81;4941836;29;8898;-74
2021/08/03 18:53:46;;;;;;;;;58.25;47.25;;;;;27.23;77.56;101126.25;4932315;29;8882;-73
2021/08/03 18:56:42;;;;;;;;;85.75;81.00;;;;;26.97;78.44;101119.38;4935331;29;8859;-73
2021/08/03 18:59:40;;;;;;;;;59.00;48.50;;;;;27.05;78.13;101131.44;4941888;28;9955;-73
2021/08/03 19:02:37;;;;;;;;;61.00;50.00;;;;;27.09;78.12;101138.66;4929915;29;8885;-73
2021/08/03 19:05:08;;;;;;;;;53.75;44.75;;;;;27.19;78.15;101134.00;4943163;28;8879;-74
2021/08/03 19:08:09;;;;;;;;;53.25;43.25;;;;;27.27;77.68;101144.00;4939710;28;8841;-73
2021/08/03 19:11:00;;;;;;;;;57.50;47.50;;;;;27.32;77.30;101140.66;4944845;28;8852;-74
2021/08/03 19:14:12;;;;;;;;;58.00;47.00;;;;;27.35;77.14;101134.09;4939123;29;8878;-73
2021/08/03 19:17:16;;;;;;;;;65.00;53.25;;;;;27.22;77.46;101136.00;4946386;29;9600;-74
2021/08/03 19:20:12;;;;;;;;;62.25;50.50;;;;;26.94;79.04;101150.69;4935825;29;8878;-74
2021/08/03 19:23:12;;;;;;;;;59.50;48.50;;;;;27.15;78.15;101165.31;4949533;28;8871;-74
2021/08/03 19:26:08;;;;;;;;;59.00;48.75;;;;;27.17;78.12;101173.41;4938474;29;8879;-74
2021/08/03 19:29:04;;;;;;;;;61.75;50.50;;;;;27.27;77.65;101165.91;4943055;29;8888;-74
2021/08/03 19:31:32;;;;;;;;;64.50;51.50;;;;;27.13;78.48;101153.56;4935815;29;9571;-73
2021/08/03 19:34:29;;;;;;;;;60.25;48.25;;;;;26.96;79.13;101162.41;4937164;28;8949;-74
2021/08/03 19:37:24;;;;;;;;;58.25;48.25;;;;;27.10;78.66;101165.00;4930712;28;9644;-75
2021/08/03 19:40:20;;;;;;;;;60.25;49.00;;;;;27.08;78.76;101176.00;4939822;29;8862;-75
2021/08/03 19:43:16;;;;;;;;;60.50;49.25;;;;;27.13;78.03;101178.31;4939051;28;8881;-76
2021/08/03 19:45:59;;;;;;;;;58.25;47.25;;;;;26.84;79.17;101170.31;4954529;28;8864;-74
2021/08/03 19:49:01;;;;;;;;;61.00;47.25;;;;;26.98;78.73;101166.41;4938181;28;8878;-75
2021/08/03 19:51:59;;;;;;;;;54.75;45.75;;;;;26.91;79.05;101158.00;4945825;28;8863;-75
2021/08/03 19:54:59;;;;;;;;;55.50;45.00;;;;;26.69;80.38;101163.28;4953808;28;8880;-74
2021/08/03 19:57:59;;;;;;;;;60.75;49.00;;;;;26.89;79.20;101155.59;4942672;29;8882;-75
2021/08/03 20:00:54;;;;;;;;;51.75;43.00;;;;;26.65;80.29;101156.03;4938280;29;8900;-74
2021/08/03 20:03:51;;;;;;;;;58.75;48.00;;;;;26.78;79.89;101159.88;4925817;29;8863;-77
2021/08/03 20:06:20;;;;;;;;;60.75;49.50;;;;;26.66;79.83;101169.78;4944720;29;8857;-74
2021/08/03 20:08:52;;;;;;;;;61.50;49.25;;;;;26.88;78.81;101175.91;4935811;29;8863;-74
2021/08/03 20:11:49;;;;;;;;;56.50;45.50;;;;;26.97;78.59;101181.81;4930641;29;10703;-75
2021/08/03 20:14:46;;;;;;;;;56.75;45.75;;;;;26.99;78.01;101190.72;4950672;29;8864;-74
2021/08/03 20:17:42;;;;;;;;;59.25;48.00;;;;;26.98;78.10;101194.78;4962810;29;8852;-75
2021/08/03 20:20:38;;;;;;;;;60.50;49.00;;;;;26.92;78.19;101202.19;4926645;29;8860;-75
2021/08/03 20:23:06;;;;;;;;;56.50;45.75;;;;;26.88;77.83;101202.25;4941167;29;9026;-75